sensor_id;sensor_type;location;lat;lon;timestamp;temperature;humidity
46590;DHT22;32313;48.722;9.362;2023-09-30T00:01:56;13.60;99.90
46590;DHT22;32313;48.722;9.362;2023-09-30T00:04:22;13.60;99.90
46590;DHT22;32313;48.722;9.362;2023-09-30T00:06:47;13.70;99.90
46590;DHT22;32313;48.722;9.362;2023-09-30T00:09:13;13.70;99.90
46590;DHT22;32313;48.722;9.362;2023-09-30T00:11:39;13.70;99.90
46590;DHT22;32313;48.722;9.362;2023-09-30T00:14:05;13.60;99.90
46590;DHT22;32313;48.722;9.362;2023-09-30T00:16:31;13.60;99.90
46590;DHT22;32313;48.722;9.362;2023-09-30T00:18:56;13.70;99.90
46590;DHT22;32313;48.722;9.362;2023-09-30T00:21:24;13.80;99.90
46590;DHT22;32313;48.722;9.362;2023-09-30T00:23:50;13.70;99.90
46590;DHT22;32313;48.722;9.362;2023-09-30T00:26:15;13.70;99.90
46590;DHT22;32313;48.722;9.362;2023-09-30T00:28:45;13.60;99.90
46590;DHT22;32313;48.722;9.362;2023-09-30T00:31:11;13.50;99.90
46590;DHT22;32313;48.722;9.362;2023-09-30T00:33:37;13.40;99.90
46590;DHT22;32313;48.722;9.362;2023-09-30T00:36:10;13.30;99.90
46590;DHT22;32313;48.722;9.362;2023-09-30T00:38:37;13.20;99.90
46590;DHT22;32313;48.722;9.362;2023-09-30T00:41:03;13.10;99.90
46590;DHT22;32313;48.722;9.362;2023-09-30T00:43:29;12.90;99.90
46590;DHT22;32313;48.722;9.362;2023-09-30T00:46:23;12.90;99.90
46590;DHT22;32313;48.722;9.362;2023-09-30T00:48:51;12.80;99.90
46590;DHT22;32313;48.722;9.362;2023-09-30T00:51:17;12.70;99.90
46590;DHT22;32313;48.722;9.362;2023-09-30T00:53:43;12.70;99.90
46590;DHT22;32313;48.722;9.362;2023-09-30T00:56:09;12.60;99.90
46590;DHT22;32313;48.722;9.362;2023-09-30T00:58:38;12.60;99.90
46590;DHT22;32313;48.722;9.362;2023-09-30T01:01:05;12.50;99.90
46590;DHT22;32313;48.722;9.362;2023-09-30T01:03:30;12.50;99.90
46590;DHT22;32313;48.722;9.362;2023-09-30T01:05:56;12.50;99.90
46590;DHT22;32313;48.722;9.362;2023-09-30T01:08:22;12.40;99.90
46590;DHT22;32313;48.722;9.362;2023-09-30T01:10:49;12.40;99.90
46590;DHT22;32313;48.722;9.362;2023-09-30T01:13:16;12.40;99.90
46590;DHT22;32313;48.722;9.362;2023-09-30T01:15:42;12.40;99.90
46590;DHT22;32313;48.722;9.362;2023-09-30T01:18:07;12.30;99.90
46590;DHT22;32313;48.722;9.362;2023-09-30T01:20:33;12.30;99.90
46590;DHT22;32313;48.722;9.362;2023-09-30T01:22:59;12.30;99.90
46590;DHT22;32313;48.722;9.362;2023-09-30T01:25:24;12.40;99.90
46590;DHT22;32313;48.722;9.362;2023-09-30T01:27:51;12.30;99.90
46590;DHT22;32313;48.722;9.362;2023-09-30T01:30:17;12.30;99.90
46590;DHT22;32313;48.722;9.362;2023-09-30T01:32:44;12.40;99.90
46590;DHT22;32313;48.722;9.362;2023-09-30T01:35:09;12.40;99.90
46590;DHT22;32313;48.722;9.362;2023-09-30T01:37:38;12.50;99.90
46590;DHT22;32313;48.722;9.362;2023-09-30T01:40:04;12.50;99.90
46590;DHT22;32313;48.722;9.362;2023-09-30T01:42:31;12.50;99.90
46590;DHT22;32313;48.722;9.362;2023-09-30T01:44:56;12.50;99.90
46590;DHT22;32313;48.722;9.362;2023-09-30T01:47:23;12.60;99.90
46590;DHT22;32313;48.722;9.362;2023-09-30T01:49:48;12.70;99.90
46590;DHT22;32313;48.722;9.362;2023-09-30T01:52:14;12.80;99.90
46590;DHT22;32313;48.722;9.362;2023-09-30T01:54:40;12.90;99.90
46590;DHT22;32313;48.722;9.362;2023-09-30T01:57:06;12.90;99.90
46590;DHT22;32313;48.722;9.362;2023-09-30T01:59:32;13.00;99.90
46590;DHT22;32313;48.722;9.362;2023-09-30T02:01:57;13.10;99.90
46590;DHT22;32313;48.722;9.362;2023-09-30T02:04:23;13.10;99.90
46590;DHT22;32313;48.722;9.362;2023-09-30T02:06:48;13.20;99.90
46590;DHT22;32313;48.722;9.362;2023-09-30T02:09:14;13.20;99.90
46590;DHT22;32313;48.722;9.362;2023-09-30T02:11:40;13.20;99.90
46590;DHT22;32313;48.722;9.362;2023-09-30T02:14:06;13.20;99.90
46590;DHT22;32313;48.722;9.362;2023-09-30T02:16:32;13.10;99.90
46590;DHT22;32313;48.722;9.362;2023-09-30T02:18:58;13.00;99.90
46590;DHT22;32313;48.722;9.362;2023-09-30T02:21:24;12.90;99.90
46590;DHT22;32313;48.722;9.362;2023-09-30T02:23:50;12.80;99.90
46590;DHT22;32313;48.722;9.362;2023-09-30T02:26:21;12.70;99.90
46590;DHT22;32313;48.722;9.362;2023-09-30T02:28:48;12.70;99.90
46590;DHT22;32313;48.722;9.362;2023-09-30T02:31:13;12.70;99.90
46590;DHT22;32313;48.722;9.362;2023-09-30T02:33:39;12.70;99.90
46590;DHT22;32313;48.722;9.362;2023-09-30T02:36:08;12.70;99.90
46590;DHT22;32313;48.722;9.362;2023-09-30T02:38:34;12.70;99.90
46590;DHT22;32313;48.722;9.362;2023-09-30T02:41:02;12.70;99.90
46590;DHT22;32313;48.722;9.362;2023-09-30T02:43:28;12.60;99.90
46590;DHT22;32313;48.722;9.362;2023-09-30T02:45:55;12.50;99.90
46590;DHT22;32313;48.722;9.362;2023-09-30T02:48:21;12.30;99.90
46590;DHT22;32313;48.722;9.362;2023-09-30T02:50:46;12.20;99.90
46590;DHT22;32313;48.722;9.362;2023-09-30T02:53:12;12.10;99.90
46590;DHT22;32313;48.722;9.362;2023-09-30T02:55:39;12.10;99.90
46590;DHT22;32313;48.722;9.362;2023-09-30T02:58:05;12.10;99.90
46590;DHT22;32313;48.722;9.362;2023-09-30T03:00:32;12.10;99.90
46590;DHT22;32313;48.722;9.362;2023-09-30T03:03:00;12.20;99.90
46590;DHT22;32313;48.722;9.362;2023-09-30T03:05:26;12.30;99.90
46590;DHT22;32313;48.722;9.362;2023-09-30T03:07:53;12.50;99.90
46590;DHT22;32313;48.722;9.362;2023-09-30T03:10:20;12.60;99.90
46590;DHT22;32313;48.722;9.362;2023-09-30T03:12:52;12.70;99.90
46590;DHT22;32313;48.722;9.362;2023-09-30T03:15:18;12.80;99.90
46590;DHT22;32313;48.722;9.362;2023-09-30T03:17:44;12.90;99.90
46590;DHT22;32313;48.722;9.362;2023-09-30T03:20:11;13.00;99.90
46590;DHT22;32313;48.722;9.362;2023-09-30T03:22:42;13.00;99.90
46590;DHT22;32313;48.722;9.362;2023-09-30T03:25:10;13.10;99.90
46590;DHT22;32313;48.722;9.362;2023-09-30T03:27:37;13.10;99.90
46590;DHT22;32313;48.722;9.362;2023-09-30T03:30:07;13.20;99.90
46590;DHT22;32313;48.722;9.362;2023-09-30T03:32:34;13.20;99.90
46590;DHT22;32313;48.722;9.362;2023-09-30T03:35:05;13.20;99.90
46590;DHT22;32313;48.722;9.362;2023-09-30T03:37:34;13.30;99.90
46590;DHT22;32313;48.722;9.362;2023-09-30T03:40:00;13.30;99.90
46590;DHT22;32313;48.722;9.362;2023-09-30T03:42:31;13.30;99.90
46590;DHT22;32313;48.722;9.362;2023-09-30T03:44:57;13.30;99.90
46590;DHT22;32313;48.722;9.362;2023-09-30T03:47:23;13.30;99.90
46590;DHT22;32313;48.722;9.362;2023-09-30T03:49:49;13.30;99.90
46590;DHT22;32313;48.722;9.362;2023-09-30T03:52:14;13.30;99.90
46590;DHT22;32313;48.722;9.362;2023-09-30T03:54:40;13.20;99.90
46590;DHT22;32313;48.722;9.362;2023-09-30T03:57:07;13.20;99.90
46590;DHT22;32313;48.722;9.362;2023-09-30T03:59:32;13.00;99.90
46590;DHT22;32313;48.722;9.362;2023-09-30T04:01:59;13.00;99.90
46590;DHT22;32313;48.722;9.362;2023-09-30T04:04:25;12.80;99.90
46590;DHT22;32313;48.722;9.362;2023-09-30T04:06:51;12.80;99.90
46590;DHT22;32313;48.722;9.362;2023-09-30T04:09:17;12.70;99.90
46590;DHT22;32313;48.722;9.362;2023-09-30T04:11:43;12.60;99.90
46590;DHT22;32313;48.722;9.362;2023-09-30T04:14:09;12.50;99.90
46590;DHT22;32313;48.722;9.362;2023-09-30T04:16:36;12.40;99.90
46590;DHT22;32313;48.722;9.362;2023-09-30T04:19:03;12.30;99.90
46590;DHT22;32313;48.722;9.362;2023-09-30T04:21:30;12.30;99.90
46590;DHT22;32313;48.722;9.362;2023-09-30T04:23:59;12.20;99.90
46590;DHT22;32313;48.722;9.362;2023-09-30T04:26:25;12.20;99.90
46590;DHT22;32313;48.722;9.362;2023-09-30T04:28:51;12.20;99.90
46590;DHT22;32313;48.722;9.362;2023-09-30T04:31:18;12.30;99.90
46590;DHT22;32313;48.722;9.362;2023-09-30T04:33:44;12.30;99.90
46590;DHT22;32313;48.722;9.362;2023-09-30T04:36:10;12.30;99.90
46590;DHT22;32313;48.722;9.362;2023-09-30T04:38:36;12.30;99.90
46590;DHT22;32313;48.722;9.362;2023-09-30T04:41:05;12.30;99.90
46590;DHT22;32313;48.722;9.362;2023-09-30T04:43:33;12.30;99.90
46590;DHT22;32313;48.722;9.362;2023-09-30T04:45:59;12.20;99.90
46590;DHT22;32313;48.722;9.362;2023-09-30T04:48:25;12.20;99.90
46590;DHT22;32313;48.722;9.362;2023-09-30T04:50:51;12.20;99.90
46590;DHT22;32313;48.722;9.362;2023-09-30T04:53:18;12.10;99.90
46590;DHT22;32313;48.722;9.362;2023-09-30T04:55:44;12.10;99.90
46590;DHT22;32313;48.722;9.362;2023-09-30T04:58:10;12.10;99.90
46590;DHT22;32313;48.722;9.362;2023-09-30T05:00:36;12.10;99.90
46590;DHT22;32313;48.722;9.362;2023-09-30T05:03:02;12.20;99.90
46590;DHT22;32313;48.722;9.362;2023-09-30T05:05:28;12.20;99.90
46590;DHT22;32313;48.722;9.362;2023-09-30T05:07:54;12.30;99.90
46590;DHT22;32313;48.722;9.362;2023-09-30T05:10:20;12.30;99.90
46590;DHT22;32313;48.722;9.362;2023-09-30T05:12:46;12.30;99.90
46590;DHT22;32313;48.722;9.362;2023-09-30T05:15:12;12.30;99.90
46590;DHT22;32313;48.722;9.362;2023-09-30T05:17:39;12.30;99.90
46590;DHT22;32313;48.722;9.362;2023-09-30T05:20:05;12.30;99.90
46590;DHT22;32313;48.722;9.362;2023-09-30T05:22:33;12.40;99.90
46590;DHT22;32313;48.722;9.362;2023-09-30T05:24:59;12.40;99.90
46590;DHT22;32313;48.722;9.362;2023-09-30T05:27:26;12.50;99.90
46590;DHT22;32313;48.722;9.362;2023-09-30T05:29:52;12.60;99.90
46590;DHT22;32313;48.722;9.362;2023-09-30T05:32:18;12.60;99.90
46590;DHT22;32313;48.722;9.362;2023-09-30T05:34:44;12.70;99.90
46590;DHT22;32313;48.722;9.362;2023-09-30T05:37:10;12.70;99.90
46590;DHT22;32313;48.722;9.362;2023-09-30T05:39:37;12.70;99.90
46590;DHT22;32313;48.722;9.362;2023-09-30T05:42:03;12.80;99.90
46590;DHT22;32313;48.722;9.362;2023-09-30T05:44:29;12.80;99.90
46590;DHT22;32313;48.722;9.362;2023-09-30T05:46:55;12.80;99.90
46590;DHT22;32313;48.722;9.362;2023-09-30T05:49:21;12.90;99.90
46590;DHT22;32313;48.722;9.362;2023-09-30T05:51:47;12.90;99.90
46590;DHT22;32313;48.722;9.362;2023-09-30T05:54:12;12.90;99.90
46590;DHT22;32313;48.722;9.362;2023-09-30T05:56:38;12.90;99.90
46590;DHT22;32313;48.722;9.362;2023-09-30T05:59:07;13.00;99.90
46590;DHT22;32313;48.722;9.362;2023-09-30T06:01:33;13.10;99.90
46590;DHT22;32313;48.722;9.362;2023-09-30T06:04:00;13.10;99.90
46590;DHT22;32313;48.722;9.362;2023-09-30T06:06:26;13.20;99.90
46590;DHT22;32313;48.722;9.362;2023-09-30T06:08:54;13.30;99.90
46590;DHT22;32313;48.722;9.362;2023-09-30T06:11:21;13.40;99.90
46590;DHT22;32313;48.722;9.362;2023-09-30T06:13:56;13.50;99.90
46590;DHT22;32313;48.722;9.362;2023-09-30T06:16:24;13.50;99.90
46590;DHT22;32313;48.722;9.362;2023-09-30T06:18:52;13.60;99.90
46590;DHT22;32313;48.722;9.362;2023-09-30T06:21:19;13.70;99.90
46590;DHT22;32313;48.722;9.362;2023-09-30T06:23:49;13.70;99.90
46590;DHT22;32313;48.722;9.362;2023-09-30T06:26:17;13.80;99.90
46590;DHT22;32313;48.722;9.362;2023-09-30T06:28:44;13.90;99.90
46590;DHT22;32313;48.722;9.362;2023-09-30T06:31:10;13.90;99.90
46590;DHT22;32313;48.722;9.362;2023-09-30T06:33:37;14.00;99.90
46590;DHT22;32313;48.722;9.362;2023-09-30T06:36:15;14.10;99.90
46590;DHT22;32313;48.722;9.362;2023-09-30T06:38:41;14.10;99.90
46590;DHT22;32313;48.722;9.362;2023-09-30T06:41:15;14.20;99.90
46590;DHT22;32313;48.722;9.362;2023-09-30T06:43:42;14.30;99.90
46590;DHT22;32313;48.722;9.362;2023-09-30T06:46:08;14.30;99.90
46590;DHT22;32313;48.722;9.362;2023-09-30T06:48:39;14.30;99.90
46590;DHT22;32313;48.722;9.362;2023-09-30T06:51:12;14.40;99.90
46590;DHT22;32313;48.722;9.362;2023-09-30T06:53:39;14.50;99.90
46590;DHT22;32313;48.722;9.362;2023-09-30T06:56:05;14.60;99.90
46590;DHT22;32313;48.722;9.362;2023-09-30T06:58:31;14.70;99.90
46590;DHT22;32313;48.722;9.362;2023-09-30T07:00:57;14.90;99.90
46590;DHT22;32313;48.722;9.362;2023-09-30T07:03:23;15.10;99.90
46590;DHT22;32313;48.722;9.362;2023-09-30T07:05:48;15.30;99.90
46590;DHT22;32313;48.722;9.362;2023-09-30T07:08:17;15.50;99.90
46590;DHT22;32313;48.722;9.362;2023-09-30T07:10:47;15.60;99.90
46590;DHT22;32313;48.722;9.362;2023-09-30T07:13:16;15.70;99.90
46590;DHT22;32313;48.722;9.362;2023-09-30T07:15:42;15.70;99.90
46590;DHT22;32313;48.722;9.362;2023-09-30T07:18:08;15.70;99.90
46590;DHT22;32313;48.722;9.362;2023-09-30T07:20:33;15.70;99.90
46590;DHT22;32313;48.722;9.362;2023-09-30T07:23:00;16.00;99.90
46590;DHT22;32313;48.722;9.362;2023-09-30T07:25:29;16.00;99.90
46590;DHT22;32313;48.722;9.362;2023-09-30T07:27:58;16.00;99.90
46590;DHT22;32313;48.722;9.362;2023-09-30T07:30:36;16.10;99.90
46590;DHT22;32313;48.722;9.362;2023-09-30T07:33:01;16.60;99.90
46590;DHT22;32313;48.722;9.362;2023-09-30T07:35:27;17.20;99.90
46590;DHT22;32313;48.722;9.362;2023-09-30T07:37:53;17.80;99.90
46590;DHT22;32313;48.722;9.362;2023-09-30T07:40:19;18.10;99.90
46590;DHT22;32313;48.722;9.362;2023-09-30T07:42:45;18.10;99.90
46590;DHT22;32313;48.722;9.362;2023-09-30T07:45:10;18.10;99.90
46590;DHT22;32313;48.722;9.362;2023-09-30T07:47:36;18.00;99.90
46590;DHT22;32313;48.722;9.362;2023-09-30T07:50:02;17.80;99.90
46590;DHT22;32313;48.722;9.362;2023-09-30T07:52:31;17.80;99.90
46590;DHT22;32313;48.722;9.362;2023-09-30T07:54:57;17.80;99.90
46590;DHT22;32313;48.722;9.362;2023-09-30T07:57:23;17.90;99.90
46590;DHT22;32313;48.722;9.362;2023-09-30T07:59:48;18.20;99.90
46590;DHT22;32313;48.722;9.362;2023-09-30T08:02:14;18.80;99.90
46590;DHT22;32313;48.722;9.362;2023-09-30T08:04:40;19.10;99.90
46590;DHT22;32313;48.722;9.362;2023-09-30T08:07:05;19.70;99.90
46590;DHT22;32313;48.722;9.362;2023-09-30T08:09:31;19.90;99.90
46590;DHT22;32313;48.722;9.362;2023-09-30T08:11:57;19.60;99.90
46590;DHT22;32313;48.722;9.362;2023-09-30T08:14:23;19.30;99.90
46590;DHT22;32313;48.722;9.362;2023-09-30T08:16:49;19.30;99.90
46590;DHT22;32313;48.722;9.362;2023-09-30T08:19:20;19.60;99.90
46590;DHT22;32313;48.722;9.362;2023-09-30T08:21:46;20.20;99.90
46590;DHT22;32313;48.722;9.362;2023-09-30T08:24:12;20.20;99.90
46590;DHT22;32313;48.722;9.362;2023-09-30T08:26:37;20.00;99.90
46590;DHT22;32313;48.722;9.362;2023-09-30T08:29:03;19.90;99.90
46590;DHT22;32313;48.722;9.362;2023-09-30T08:31:29;19.90;99.90
46590;DHT22;32313;48.722;9.362;2023-09-30T08:33:55;19.90;99.90
46590;DHT22;32313;48.722;9.362;2023-09-30T08:36:21;20.30;99.90
46590;DHT22;32313;48.722;9.362;2023-09-30T08:38:46;20.80;99.90
46590;DHT22;32313;48.722;9.362;2023-09-30T08:41:28;21.30;99.90
46590;DHT22;32313;48.722;9.362;2023-09-30T08:43:55;21.60;99.90
46590;DHT22;32313;48.722;9.362;2023-09-30T08:46:24;22.00;99.90
46590;DHT22;32313;48.722;9.362;2023-09-30T08:48:51;22.00;99.90
46590;DHT22;32313;48.722;9.362;2023-09-30T08:51:18;22.10;99.90
46590;DHT22;32313;48.722;9.362;2023-09-30T08:53:44;22.70;99.90
46590;DHT22;32313;48.722;9.362;2023-09-30T08:56:10;23.20;99.90
46590;DHT22;32313;48.722;9.362;2023-09-30T08:58:37;23.10;99.90
46590;DHT22;32313;48.722;9.362;2023-09-30T09:01:03;22.80;99.90
46590;DHT22;32313;48.722;9.362;2023-09-30T09:03:30;22.50;99.90
46590;DHT22;32313;48.722;9.362;2023-09-30T09:05:57;21.90;99.90
46590;DHT22;32313;48.722;9.362;2023-09-30T09:08:25;21.80;99.90
46590;DHT22;32313;48.722;9.362;2023-09-30T09:10:59;22.30;99.90
46590;DHT22;32313;48.722;9.362;2023-09-30T09:13:26;22.90;99.90
46590;DHT22;32313;48.722;9.362;2023-09-30T09:16:08;23.00;99.90
46590;DHT22;32313;48.722;9.362;2023-09-30T09:18:34;23.10;99.90
46590;DHT22;32313;48.722;9.362;2023-09-30T09:23:40;23.20;99.90
46590;DHT22;32313;48.722;9.362;2023-09-30T09:26:06;23.50;99.90
46590;DHT22;32313;48.722;9.362;2023-09-30T09:28:37;23.70;99.90
46590;DHT22;32313;48.722;9.362;2023-09-30T09:31:20;24.10;99.90
46590;DHT22;32313;48.722;9.362;2023-09-30T09:33:48;24.20;99.90
46590;DHT22;32313;48.722;9.362;2023-09-30T09:36:14;24.60;99.90
46590;DHT22;32313;48.722;9.362;2023-09-30T09:38:45;25.30;99.90
46590;DHT22;32313;48.722;9.362;2023-09-30T09:41:10;25.40;99.90
46590;DHT22;32313;48.722;9.362;2023-09-30T09:43:37;24.80;99.90
46590;DHT22;32313;48.722;9.362;2023-09-30T09:46:07;24.00;99.90
46590;DHT22;32313;48.722;9.362;2023-09-30T09:48:35;23.40;99.90
46590;DHT22;32313;48.722;9.362;2023-09-30T09:51:02;23.40;99.90
46590;DHT22;32313;48.722;9.362;2023-09-30T09:53:30;23.50;99.90
46590;DHT22;32313;48.722;9.362;2023-09-30T09:55:59;23.20;99.90
46590;DHT22;32313;48.722;9.362;2023-09-30T09:58:27;22.70;99.90
46590;DHT22;32313;48.722;9.362;2023-09-30T10:00:53;23.10;99.90
46590;DHT22;32313;48.722;9.362;2023-09-30T10:03:19;23.90;99.90
46590;DHT22;32313;48.722;9.362;2023-09-30T10:05:45;23.90;99.90
46590;DHT22;32313;48.722;9.362;2023-09-30T10:08:14;23.30;99.90
46590;DHT22;32313;48.722;9.362;2023-09-30T10:10:44;23.10;99.90
46590;DHT22;32313;48.722;9.362;2023-09-30T10:21:34;23.90;99.90
46590;DHT22;32313;48.722;9.362;2023-09-30T10:30:14;25.70;99.90
46590;DHT22;32313;48.722;9.362;2023-09-30T10:35:20;26.80;99.90
46590;DHT22;32313;48.722;9.362;2023-09-30T10:37:46;27.10;99.90
46590;DHT22;32313;48.722;9.362;2023-09-30T10:40:31;26.80;99.90
46590;DHT22;32313;48.722;9.362;2023-09-30T10:42:57;27.00;98.90
46590;DHT22;32313;48.722;9.362;2023-09-30T10:51:10;28.60;96.80
46590;DHT22;32313;48.722;9.362;2023-09-30T10:53:45;28.60;94.80
46590;DHT22;32313;48.722;9.362;2023-09-30T10:56:11;28.10;94.10
46590;DHT22;32313;48.722;9.362;2023-09-30T10:58:53;28.00;94.00
46590;DHT22;32313;48.722;9.362;2023-09-30T11:01:20;28.30;94.10
46590;DHT22;32313;48.722;9.362;2023-09-30T11:03:46;28.50;93.30
46590;DHT22;32313;48.722;9.362;2023-09-30T11:06:17;28.80;93.00
46590;DHT22;32313;48.722;9.362;2023-09-30T11:08:56;28.80;92.80
46590;DHT22;32313;48.722;9.362;2023-09-30T11:11:46;29.20;92.90
46590;DHT22;32313;48.722;9.362;2023-09-30T11:14:29;29.90;90.80
46590;DHT22;32313;48.722;9.362;2023-09-30T11:17:02;30.30;90.70
46590;DHT22;32313;48.722;9.362;2023-09-30T11:19:37;30.60;89.60
46590;DHT22;32313;48.722;9.362;2023-09-30T11:22:03;29.80;87.70
46590;DHT22;32313;48.722;9.362;2023-09-30T11:24:28;28.50;90.40
46590;DHT22;32313;48.722;9.362;2023-09-30T11:26:55;27.50;91.50
46590;DHT22;32313;48.722;9.362;2023-09-30T11:29:21;26.60;91.70
46590;DHT22;32313;48.722;9.362;2023-09-30T11:31:48;25.70;92.40
46590;DHT22;32313;48.722;9.362;2023-09-30T11:34:15;25.10;92.80
46590;DHT22;32313;48.722;9.362;2023-09-30T11:36:50;25.30;92.30
46590;DHT22;32313;48.722;9.362;2023-09-30T11:39:26;25.20;92.10
46590;DHT22;32313;48.722;9.362;2023-09-30T11:41:53;24.80;90.90
46590;DHT22;32313;48.722;9.362;2023-09-30T11:44:21;24.10;92.40
46590;DHT22;32313;48.722;9.362;2023-09-30T11:46:56;23.70;93.00
46590;DHT22;32313;48.722;9.362;2023-09-30T11:49:34;23.50;93.70
46590;DHT22;32313;48.722;9.362;2023-09-30T11:52:03;24.60;93.30
46590;DHT22;32313;48.722;9.362;2023-09-30T11:54:30;25.80;92.20
46590;DHT22;32313;48.722;9.362;2023-09-30T11:56:56;26.30;90.90
46590;DHT22;32313;48.722;9.362;2023-09-30T11:59:22;26.60;90.40
46590;DHT22;32313;48.722;9.362;2023-09-30T12:01:48;27.20;89.00
46590;DHT22;32313;48.722;9.362;2023-09-30T12:04:15;27.40;86.10
46590;DHT22;32313;48.722;9.362;2023-09-30T12:06:43;27.40;85.40
46590;DHT22;32313;48.722;9.362;2023-09-30T12:09:08;27.20;84.40
46590;DHT22;32313;48.722;9.362;2023-09-30T12:11:39;27.20;84.70
46590;DHT22;32313;48.722;9.362;2023-09-30T12:14:04;28.30;83.20
46590;DHT22;32313;48.722;9.362;2023-09-30T12:16:31;29.20;80.70
46590;DHT22;32313;48.722;9.362;2023-09-30T12:18:57;29.40;81.20
46590;DHT22;32313;48.722;9.362;2023-09-30T12:21:23;29.60;78.60
46590;DHT22;32313;48.722;9.362;2023-09-30T12:23:49;29.40;77.40
46590;DHT22;32313;48.722;9.362;2023-09-30T12:26:15;29.30;79.00
46590;DHT22;32313;48.722;9.362;2023-09-30T12:28:43;28.80;78.60
46590;DHT22;32313;48.722;9.362;2023-09-30T12:31:09;27.90;79.80
46590;DHT22;32313;48.722;9.362;2023-09-30T12:33:36;27.20;81.80
46590;DHT22;32313;48.722;9.362;2023-09-30T12:36:01;27.10;83.00
46590;DHT22;32313;48.722;9.362;2023-09-30T12:38:27;27.80;80.00
46590;DHT22;32313;48.722;9.362;2023-09-30T12:40:54;28.20;78.70
46590;DHT22;32313;48.722;9.362;2023-09-30T12:43:21;28.50;78.80
46590;DHT22;32313;48.722;9.362;2023-09-30T12:45:47;28.50;78.60
46590;DHT22;32313;48.722;9.362;2023-09-30T12:48:14;28.30;76.50
46590;DHT22;32313;48.722;9.362;2023-09-30T12:50:43;28.20;76.60
46590;DHT22;32313;48.722;9.362;2023-09-30T12:53:10;27.90;77.00
46590;DHT22;32313;48.722;9.362;2023-09-30T12:55:35;27.20;79.00
46590;DHT22;32313;48.722;9.362;2023-09-30T12:58:01;27.70;78.40
46590;DHT22;32313;48.722;9.362;2023-09-30T13:00:27;28.00;77.90
46590;DHT22;32313;48.722;9.362;2023-09-30T13:02:56;27.90;78.20
46590;DHT22;32313;48.722;9.362;2023-09-30T13:05:22;27.50;79.10
46590;DHT22;32313;48.722;9.362;2023-09-30T13:07:48;26.90;79.20
46590;DHT22;32313;48.722;9.362;2023-09-30T13:10:14;26.30;82.00
46590;DHT22;32313;48.722;9.362;2023-09-30T13:12:40;25.90;83.60
46590;DHT22;32313;48.722;9.362;2023-09-30T13:15:06;25.40;84.20
46590;DHT22;32313;48.722;9.362;2023-09-30T13:17:34;25.20;85.90
46590;DHT22;32313;48.722;9.362;2023-09-30T13:20:00;25.90;82.70
46590;DHT22;32313;48.722;9.362;2023-09-30T13:22:25;26.70;81.00
46590;DHT22;32313;48.722;9.362;2023-09-30T13:24:51;27.50;78.90
46590;DHT22;32313;48.722;9.362;2023-09-30T13:27:17;28.10;77.20
46590;DHT22;32313;48.722;9.362;2023-09-30T13:29:43;28.30;77.40
46590;DHT22;32313;48.722;9.362;2023-09-30T13:32:10;28.50;76.40
46590;DHT22;32313;48.722;9.362;2023-09-30T13:34:36;27.90;75.80
46590;DHT22;32313;48.722;9.362;2023-09-30T13:37:01;27.20;77.80
46590;DHT22;32313;48.722;9.362;2023-09-30T13:39:27;27.30;78.00
46590;DHT22;32313;48.722;9.362;2023-09-30T13:41:54;27.50;77.60
46590;DHT22;32313;48.722;9.362;2023-09-30T13:44:20;27.50;75.70
46590;DHT22;32313;48.722;9.362;2023-09-30T13:46:46;27.30;76.40
46590;DHT22;32313;48.722;9.362;2023-09-30T13:49:12;27.60;76.40
46590;DHT22;32313;48.722;9.362;2023-09-30T13:51:39;28.00;75.90
46590;DHT22;32313;48.722;9.362;2023-09-30T13:54:05;28.30;74.50
46590;DHT22;32313;48.722;9.362;2023-09-30T13:56:33;28.20;74.90
46590;DHT22;32313;48.722;9.362;2023-09-30T13:58:58;27.80;73.10
46590;DHT22;32313;48.722;9.362;2023-09-30T14:01:25;27.70;74.30
46590;DHT22;32313;48.722;9.362;2023-09-30T14:03:51;28.00;73.00
46590;DHT22;32313;48.722;9.362;2023-09-30T14:06:21;28.40;72.10
46590;DHT22;32313;48.722;9.362;2023-09-30T14:08:46;28.60;71.40
46590;DHT22;32313;48.722;9.362;2023-09-30T14:11:12;28.40;73.40
46590;DHT22;32313;48.722;9.362;2023-09-30T14:13:38;27.90;73.40
46590;DHT22;32313;48.722;9.362;2023-09-30T14:16:05;27.30;75.10
46590;DHT22;32313;48.722;9.362;2023-09-30T14:18:32;26.90;75.40
46590;DHT22;32313;48.722;9.362;2023-09-30T14:20:58;26.40;77.00
46590;DHT22;32313;48.722;9.362;2023-09-30T14:23:24;26.10;78.30
46590;DHT22;32313;48.722;9.362;2023-09-30T14:25:53;25.90;79.10
46590;DHT22;32313;48.722;9.362;2023-09-30T14:28:19;25.50;80.00
46590;DHT22;32313;48.722;9.362;2023-09-30T14:30:45;25.00;80.20
46590;DHT22;32313;48.722;9.362;2023-09-30T14:33:11;24.40;82.40
46590;DHT22;32313;48.722;9.362;2023-09-30T14:35:36;24.20;83.20
46590;DHT22;32313;48.722;9.362;2023-09-30T14:38:03;23.90;84.00
46590;DHT22;32313;48.722;9.362;2023-09-30T14:40:30;23.40;85.30
46590;DHT22;32313;48.722;9.362;2023-09-30T14:42:56;23.20;86.60
46590;DHT22;32313;48.722;9.362;2023-09-30T14:45:21;23.30;87.70
46590;DHT22;32313;48.722;9.362;2023-09-30T14:47:47;23.40;88.00
46590;DHT22;32313;48.722;9.362;2023-09-30T14:50:13;23.20;88.10
46590;DHT22;32313;48.722;9.362;2023-09-30T14:52:39;23.10;88.30
46590;DHT22;32313;48.722;9.362;2023-09-30T14:55:05;22.90;88.60
46590;DHT22;32313;48.722;9.362;2023-09-30T14:57:31;22.80;89.50
46590;DHT22;32313;48.722;9.362;2023-09-30T14:59:58;22.70;90.00
46590;DHT22;32313;48.722;9.362;2023-09-30T15:02:26;22.70;89.80
46590;DHT22;32313;48.722;9.362;2023-09-30T15:04:52;22.60;89.50
46590;DHT22;32313;48.722;9.362;2023-09-30T15:07:18;22.50;89.90
46590;DHT22;32313;48.722;9.362;2023-09-30T15:09:44;22.50;90.10
46590;DHT22;32313;48.722;9.362;2023-09-30T15:12:10;22.50;90.40
46590;DHT22;32313;48.722;9.362;2023-09-30T15:14:35;22.60;90.40
46590;DHT22;32313;48.722;9.362;2023-09-30T15:17:01;22.60;90.50
46590;DHT22;32313;48.722;9.362;2023-09-30T15:19:26;22.60;90.70
46590;DHT22;32313;48.722;9.362;2023-09-30T15:21:52;22.60;90.80
46590;DHT22;32313;48.722;9.362;2023-09-30T15:24:18;22.40;90.90
46590;DHT22;32313;48.722;9.362;2023-09-30T15:26:44;22.30;91.10
46590;DHT22;32313;48.722;9.362;2023-09-30T15:29:09;22.30;91.20
46590;DHT22;32313;48.722;9.362;2023-09-30T15:31:35;22.30;91.20
46590;DHT22;32313;48.722;9.362;2023-09-30T15:34:01;22.30;91.20
46590;DHT22;32313;48.722;9.362;2023-09-30T15:36:26;22.40;91.30
46590;DHT22;32313;48.722;9.362;2023-09-30T15:38:52;22.40;91.20
46590;DHT22;32313;48.722;9.362;2023-09-30T15:41:25;22.40;91.10
46590;DHT22;32313;48.722;9.362;2023-09-30T15:43:51;22.30;91.00
46590;DHT22;32313;48.722;9.362;2023-09-30T15:46:16;22.20;91.20
46590;DHT22;32313;48.722;9.362;2023-09-30T15:48:42;22.10;91.30
46590;DHT22;32313;48.722;9.362;2023-09-30T15:51:08;21.90;91.60
46590;DHT22;32313;48.722;9.362;2023-09-30T15:53:34;21.60;91.90
46590;DHT22;32313;48.722;9.362;2023-09-30T15:56:02;21.40;92.30